Aviation Digital Data Service (ADDS)

Output produced by METARs form (0738 UTC 16 October 2018)
found at http://aviationweather.gov/metar/data/
 
KJAN 160521Z 1606/1706 36009KT P6SM VCSH BKN010 
     FM161000 01006KT 6SM BR VCSH BKN008 
     FM161400 02008KT P6SM VCSH BKN012 
     FM161900 02006KT P6SM VCTS BKN015CB 
     FM170000 01006KT P6SM VCSH BKN007